Dmitry Donskoy — ER2630 — position and weather

sailwx.info

Track history (hours):
 
Tides and Currents Weather Stations Pressure Air Temp Water Temp Dewpoint Dewpoint Depression Visibility Wind Speed Wind Dir Waves Ship Positions

Dmitry Donskoy

Last reported at 2018-Jan-19 09:29 UTC. Time now 2018-Jan-19 09:48 UTC.
Position N 45°29' E 036°39'.

Length 138 m; draft 3.9 m.

Type: Cargo ship. MMSI: 214182630.

Date/timePositionNaut miles runAvg speedWind from/ knotsBaromVisibWave heightAir tempDewpointWater temp
2018-Jan-19 09:29N 45°29' E 036°39'0 0.1
2018-Jan-19 08:59N 45°29' E 036°39'0 0.0
2018-Jan-19 08:29N 45°29' E 036°39'0 0.0
2018-Jan-19 07:59N 45°29' E 036°39'0 0.0
2018-Jan-19 07:29N 45°29' E 036°39'0 0.0
2018-Jan-19 06:59N 45°29' E 036°39'0 0.0
2018-Jan-19 06:26N 45°29' E 036°39'0 0.0
2018-Jan-19 05:59N 45°29' E 036°39'0 0.0
2018-Jan-19 05:29N 45°29' E 036°39'0 0.0
2018-Jan-19 04:56N 45°29' E 036°39'0 0.0
2018-Jan-19 04:29N 45°29' E 036°39'0 0.0
2018-Jan-19 03:59N 45°29' E 036°39'0 0.0
2018-Jan-19 03:29N 45°29' E 036°39'0 0.0
2018-Jan-19 02:59N 45°29' E 036°39'0 0.0
2018-Jan-19 02:29N 45°29' E 036°39'0 0.0
2018-Jan-19 01:59N 45°29' E 036°39'0 0.0
2018-Jan-19 01:29N 45°29' E 036°39'0 0.0
2018-Jan-19 00:59N 45°29' E 036°39'0 0.0
2018-Jan-19 00:29N 45°29' E 036°39'0 0.0
2018-Jan-18 23:59N 45°29' E 036°39'0 0.0
2018-Jan-18 23:29N 45°29' E 036°39'0 0.0
2018-Jan-18 22:59N 45°29' E 036°39'0 0.0
2018-Jan-18 22:29N 45°29' E 036°39'0 0.0
2018-Jan-18 21:59N 45°29' E 036°39'0 0.0
2018-Jan-18 21:29N 45°29' E 036°39'0 0.0
2018-Jan-18 20:59N 45°29' E 036°39'0 0.0
2018-Jan-18 20:29N 45°29' E 036°39'0 0.0
2018-Jan-18 19:59N 45°29' E 036°39'0 0.0
2018-Jan-18 19:29N 45°29' E 036°39'0 0.0
2018-Jan-18 18:59N 45°29' E 036°39'0 0.0
2018-Jan-18 18:29N 45°29' E 036°39'0 0.0
2018-Jan-18 17:59N 45°29' E 036°39'0 0.0
2018-Jan-18 17:29N 45°29' E 036°39'0 0.0
2018-Jan-18 16:59N 45°29' E 036°39'0 0.0
2018-Jan-18 16:29N 45°29' E 036°39'0 0.0
2018-Jan-18 15:59N 45°29' E 036°39'0 0.0
2018-Jan-18 15:29N 45°29' E 036°39'0 0.0
2018-Jan-18 14:59N 45°29' E 036°39'0 0.0
2018-Jan-18 14:29N 45°29' E 036°39'0 0.0
2018-Jan-18 13:59N 45°29' E 036°39'0 0.0
2018-Jan-18 13:29N 45°29' E 036°39'0 0.0
2018-Jan-18 12:59N 45°29' E 036°39'0 0.0
2018-Jan-18 12:29N 45°29' E 036°39'0 0.0
2018-Jan-18 11:59N 45°29' E 036°39'0 0.0
2018-Jan-18 11:29N 45°29' E 036°39'0 0.0
2018-Jan-18 10:59N 45°29' E 036°39'0 0.0
2018-Jan-18 10:29N 45°29' E 036°39'0 0.0
2018-Jan-18 09:56N 45°29' E 036°39'0 0.0
2018-Jan-18 09:29N 45°29' E 036°39'0 0.0
2018-Jan-18 08:59N 45°29' E 036°39'0 0.0
2018-Jan-18 08:29N 45°29' E 036°39'0 0.0
2018-Jan-18 07:59N 45°29' E 036°39'0 0.0
2018-Jan-18 07:29N 45°29' E 036°39'0 0.0
2018-Jan-18 06:59N 45°29' E 036°39'0 0.0
2018-Jan-18 06:29N 45°29' E 036°39'0 0.0
2018-Jan-18 05:59N 45°29' E 036°39'0 0.0
2018-Jan-18 05:29N 45°29' E 036°39'0 0.0
2018-Jan-18 04:59N 45°29' E 036°39'0 0.0
2018-Jan-18 04:29N 45°29' E 036°39'0 0.0
2018-Jan-18 03:59N 45°29' E 036°39'0 0.0
2018-Jan-18 03:29N 45°29' E 036°39'0 0.0
2018-Jan-18 02:59N 45°29' E 036°39'0 0.0
2018-Jan-18 02:29N 45°29' E 036°39'0 0.1
2018-Jan-18 01:56N 45°29' E 036°39'0 0.0
2018-Jan-18 01:29N 45°29' E 036°39'0 0.0
2018-Jan-18 00:59N 45°29' E 036°39'0 0.0
2018-Jan-17 23:59N 45°29' E 036°39'0 0.0
2018-Jan-17 23:56N 45°29' E 036°39'  
2018-Jan-09 12:26N 45°29' E 036°45'3 6.2
2018-Jan-09 12:00N 45°27' E 036°42'3 6.3
2018-Jan-09 11:31N 45°24' E 036°41'3 6.1
2018-Jan-09 11:01N 45°21' E 036°40'3 6.1
2018-Jan-09 10:31N 45°20' E 036°36'3 6.1
2018-Jan-09 10:01N 45°19' E 036°32'3 5.6
2018-Jan-09 09:31N 45°17' E 036°29'  
Track history (hours):
 
Tides and Currents Weather Stations Pressure Air Temp Water Temp Dewpoint Dewpoint Depression Visibility Wind Speed Wind Dir Waves Ship Positions

Dmitry Donskoy

Last reported at 2018-Jan-19 09:29 UTC. Time now 2018-Jan-19 09:48 UTC.
Position N 45°29' E 036°39'.

Length 138 m; draft 3.9 m.

Type: Cargo ship. MMSI: 214182630.

Date/timePositionNaut miles runAvg speedWind from/ knotsBaromVisibWave heightAir tempDewpointWater temp
2018-Jan-19 09:29N 45°29' E 036°39'0 0.1
2018-Jan-19 08:59N 45°29' E 036°39'0 0.0
2018-Jan-19 08:29N 45°29' E 036°39'0 0.0
2018-Jan-19 07:59N 45°29' E 036°39'0 0.0
2018-Jan-19 07:29N 45°29' E 036°39'0 0.0
2018-Jan-19 06:59N 45°29' E 036°39'0 0.0
2018-Jan-19 06:26N 45°29' E 036°39'0 0.0
2018-Jan-19 05:59N 45°29' E 036°39'0 0.0
2018-Jan-19 05:29N 45°29' E 036°39'0 0.0
2018-Jan-19 04:56N 45°29' E 036°39'0 0.0
2018-Jan-19 04:29N 45°29' E 036°39'0 0.0
2018-Jan-19 03:59N 45°29' E 036°39'0 0.0
2018-Jan-19 03:29N 45°29' E 036°39'0 0.0
2018-Jan-19 02:59N 45°29' E 036°39'0 0.0
2018-Jan-19 02:29N 45°29' E 036°39'0 0.0
2018-Jan-19 01:59N 45°29' E 036°39'0 0.0
2018-Jan-19 01:29N 45°29' E 036°39'0 0.0
2018-Jan-19 00:59N 45°29' E 036°39'0 0.0
2018-Jan-19 00:29N 45°29' E 036°39'0 0.0
2018-Jan-18 23:59N 45°29' E 036°39'0 0.0
2018-Jan-18 23:29N 45°29' E 036°39'0 0.0
2018-Jan-18 22:59N 45°29' E 036°39'0 0.0
2018-Jan-18 22:29N 45°29' E 036°39'0 0.0
2018-Jan-18 21:59N 45°29' E 036°39'0 0.0
2018-Jan-18 21:29N 45°29' E 036°39'0 0.0
2018-Jan-18 20:59N 45°29' E 036°39'0 0.0
2018-Jan-18 20:29N 45°29' E 036°39'0 0.0
2018-Jan-18 19:59N 45°29' E 036°39'0 0.0
2018-Jan-18 19:29N 45°29' E 036°39'0 0.0
2018-Jan-18 18:59N 45°29' E 036°39'0 0.0
2018-Jan-18 18:29N 45°29' E 036°39'0 0.0
2018-Jan-18 17:59N 45°29' E 036°39'0 0.0
2018-Jan-18 17:29N 45°29' E 036°39'0 0.0
2018-Jan-18 16:59N 45°29' E 036°39'0 0.0
2018-Jan-18 16:29N 45°29' E 036°39'0 0.0
2018-Jan-18 15:59N 45°29' E 036°39'0 0.0
2018-Jan-18 15:29N 45°29' E 036°39'0 0.0
2018-Jan-18 14:59N 45°29' E 036°39'0 0.0
2018-Jan-18 14:29N 45°29' E 036°39'0 0.0
2018-Jan-18 13:59N 45°29' E 036°39'0 0.0
2018-Jan-18 13:29N 45°29' E 036°39'0 0.0
2018-Jan-18 12:59N 45°29' E 036°39'0 0.0
2018-Jan-18 12:29N 45°29' E 036°39'0 0.0
2018-Jan-18 11:59N 45°29' E 036°39'0 0.0
2018-Jan-18 11:29N 45°29' E 036°39'0 0.0
2018-Jan-18 10:59N 45°29' E 036°39'0 0.0
2018-Jan-18 10:29N 45°29' E 036°39'0 0.0
2018-Jan-18 09:56N 45°29' E 036°39'0 0.0
2018-Jan-18 09:29N 45°29' E 036°39'0 0.0
2018-Jan-18 08:59N 45°29' E 036°39'0 0.0
2018-Jan-18 08:29N 45°29' E 036°39'0 0.0
2018-Jan-18 07:59N 45°29' E 036°39'0 0.0
2018-Jan-18 07:29N 45°29' E 036°39'0 0.0
2018-Jan-18 06:59N 45°29' E 036°39'0 0.0
2018-Jan-18 06:29N 45°29' E 036°39'0 0.0
2018-Jan-18 05:59N 45°29' E 036°39'0 0.0
2018-Jan-18 05:29N 45°29' E 036°39'0 0.0
2018-Jan-18 04:59N 45°29' E 036°39'0 0.0
2018-Jan-18 04:29N 45°29' E 036°39'0 0.0
2018-Jan-18 03:59N 45°29' E 036°39'0 0.0
2018-Jan-18 03:29N 45°29' E 036°39'0 0.0
2018-Jan-18 02:59N 45°29' E 036°39'0 0.0
2018-Jan-18 02:29N 45°29' E 036°39'0 0.1
2018-Jan-18 01:56N 45°29' E 036°39'0 0.0
2018-Jan-18 01:29N 45°29' E 036°39'0 0.0
2018-Jan-18 00:59N 45°29' E 036°39'0 0.0
2018-Jan-17 23:59N 45°29' E 036°39'0 0.0
2018-Jan-17 23:56N 45°29' E 036°39'  
2018-Jan-09 12:26N 45°29' E 036°45'3 6.2
2018-Jan-09 12:00N 45°27' E 036°42'3 6.3
2018-Jan-09 11:31N 45°24' E 036°41'3 6.1
2018-Jan-09 11:01N 45°21' E 036°40'3 6.1
2018-Jan-09 10:31N 45°20' E 036°36'3 6.1
2018-Jan-09 10:01N 45°19' E 036°32'3 5.6
2018-Jan-09 09:31N 45°17' E 036°29'  

Dump ship's entire track history